Muscat, Oman
Current Conditions -  °F | °C
As of 11:50 AM on Sunday 23 Nov 2014 (Local Time) from OOMS Reporting Station
Clear Clear  
Wind Chill: 84°   Ceiling: Unl
Heat Index: 84°   Visibility: 6mi
Dew Point: 61°   Wind: 9mph
Humidity: 45%   Direction: 40°NE
Pressure: 29.94"   Gusts: NA
Location:  23.61°N, 58.54°E
Report Text: OOMS 230750Z 04008KT CAVOK 29/16 Q1014 NOSIG
Loading
Personal Weather Stations






























Interactive Weather Map New forecast layout! Learn more

10-Day Weather Forecast

Advertisements
Track Severe Weather on mobile